Detall de PIREP

Printer-friendly versionPDF version

[2008/12/15 22:08:00]
Flight IATA:CT3409
Pilot Number:026
Company ICAO:CAT
Aircraft Type:B75F/E
PAX:0
Departing Airport: LSGG
Destination Airport: LEBL
Alternate Airport:LEPA
Online: VATSIM
Route:BALSI UN852 MAMES UN975 BISBA
Flight Level:FL310
No Slew and time accel
No pause
Crash detect
Detect pilot in Cockpit between each 30 and 45 minutes
22:08 Zero fuel Weight: 238064 Lbs, Fuel Weight: 17757 Lbs
22:08 VATSIM:LSGG 152120Z 26003KT 210V330 3000 BR NSC M00/M01 Q1011 NOSIG
22:08 VATSIM:LEBL 152130Z 32013KT 9999 FEW025 06/03 Q1005 NOSIG
22:08 VOICE CATALONIAN
22:22 Parking Brakes off
22:30 Take-off
22:30 Take off Weight: 254422 Lbs
22:30 Wind: 092º @ 000 Knots Heading: 224º
22:30 POS N46º 13´ 54´´ E006º 06´ 00´´
22:30 Flaps:3 at 202 Knots
22:30 Gear Up: 199 Knots
22:30 Flaps:2 at 194 Knots
22:31 Flaps:1 at 172 Knots
22:31 Flaps:0 at 172 Knots
22:45 Wind:003º@02
6 Knots Heading: 192º Ground Speed: 473 Knots Altitude 28615 ft
22:51 TOC
22:51 Fuel Weight: 10418 Lb
23:00 Wind:359º@036 Knots Heading: 216º Ground Speed: 490 Knots Altitude 30823 ft
23:05 TOD
23:05 Fuel Weight: 8191 Lb
23:15 Wind:009º@017 Knots Heading: 245º Ground Speed: 345 Knots Altitude 9812 ft
23:26 Flaps:2 at 194 Knots
23:26 Gear Down: 193 Knots
23:26 Flaps:3 at 207 Knots
23:27 Gear Up: 206 Knots
23:28 Flaps:2 at 204 Knots
23:29 Flaps:1 at 235 Knots
23:29 Flaps:0 at 232 Knots
23:30 Wind:339º@019 Knots Heading: 243º Ground Speed: 248 Knots Altitude 3727 ft
23:43 Gear Down: 170 Knots
23:43 Flaps:1 at 168 Knots
23:43 Flaps:2 at 165 Knots
23:43 Flaps:3 at 161 Knots
23:44 Flaps:4 at 148 Knots
23:44 Flaps:5 at 137 Knots
23:45 Wind:342º@009 Knots Heading: 249º Ground Speed: 144 Knots Altitude 180 ft
23:45 TouchDown:Rate -1328 ft/min Speed: 148 Knots
23:4
5 VATSIM:LEBL 152330Z 34009KT 9999 -RA FEW025 SCT050 06/04 Q1005 NOSIG
23:45 Land
23:45 Wind:342º@009 Knots
23:45 Heading: 247º
23:45 Flight Duration: 01:15
23:45 Landing Weight: 241676 Lbs
23:45 POS N41º 18´ 02´´ E002º 05´ 20´´
23:49 Parking brakes on
23:49 Block to Block Duration: 01:27
23:49 Final Fuel: 3108 Lbls
23:49 Spent Fuel: 14649 Lbls
23:49 Flight Length: 441 NM
23:49 TOD Land Length: 184 NM

Exportar CSV

Powered by Drupal - Modified by Danger4k